sensor_id;sensor_type;location;lat;lon;timestamp;P1;durP1;ratioP1;P2;durP2;ratioP2
13051;SDS011;6592;47.484;9.726;2022-09-20T00:01:21;3.15;;;1.00;;
13051;SDS011;6592;47.484;9.726;2022-09-20T00:03:51;2.88;;;0.80;;
13051;SDS011;6592;47.484;9.726;2022-09-20T00:06:21;5.60;;;1.10;;
13051;SDS011;6592;47.484;9.726;2022-09-20T00:08:51;2.97;;;0.90;;
13051;SDS011;6592;47.484;9.726;2022-09-20T00:11:20;2.85;;;0.90;;
13051;SDS011;6592;47.484;9.726;2022-09-20T00:13:52;5.20;;;1.17;;
13051;SDS011;6592;47.484;9.726;2022-09-20T00:16:22;3.33;;;1.10;;
13051;SDS011;6592;47.484;9.726;2022-09-20T00:18:52;4.32;;;0.98;;
13051;SDS011;6592;47.484;9.726;2022-09-20T00:21:23;5.10;;;1.10;;
13051;SDS011;6592;47.484;9.726;2022-09-20T00:23:54;3.30;;;1.00;;
13051;SDS011;6592;47.484;9.726;2022-09-20T00:26:23;1.50;;;0.70;;
13051;SDS011;6592;47.484;9.726;2022-09-20T00:28:53;3.35;;;1.00;;
13051;SDS011;6592;47.484;9.726;2022-09-20T00:31:23;4.10;;;1.05;;
13051;SDS011;6592;47.484;9.726;2022-09-20T00:33:52;6.28;;;1.10;;
13051;SDS011;6592;47.484;9.726;2022-09-20T00:36:38;4.22;;;0.98;;
13051;SDS011;6592;47.484;9.726;2022-09-20T00:39:08;3.78;;;0.95;;
13051;SDS011;6592;47.484;9.726;2022-09-20T00:41:38;2.80;;;0.80;;
13051;SDS011;6592;47.484;9.726;2022-09-20T00:47:12;3.45;;;0.82;;
13051;SDS011;6592;47.484;9.726;2022-09-20T00:49:45;3.58;;;0.90;;
13051;SDS011;6592;47.484;9.726;2022-09-20T00:52:13;3.95;;;1.00;;
13051;SDS011;6592;47.484;9.726;2022-09-20T00:54:43;3.70;;;1.00;;
13051;SDS011;6592;47.484;9.726;2022-09-20T00:57:12;3.00;;;1.10;;
13051;SDS011;6592;47.484;9.726;2022-09-20T00:59:42;8.77;;;1.73;;
13051;SDS011;6592;47.484;9.726;2022-09-20T01:02:14;1.98;;;1.00;;
13051;SDS011;6592;47.484;9.726;2022-09-20T01:04:45;3.40;;;1.08;;
13051;SDS011;6592;47.484;9.726;2022-09-20T01:07:15;2.78;;;1.10;;
13051;SDS011;6592;47.484;9.726;2022-09-20T01:09:48;3.95;;;1.20;;
13051;SDS011;6592;47.484;9.726;2022-09-20T01:12:17;3.05;;;1.00;;
13051;SDS011;6592;47.484;9.726;2022-09-20T01:14:49;2.10;;;0.90;;
13051;SDS011;6592;47.484;9.726;2022-09-20T01:17:19;4.50;;;1.15;;
13051;SDS011;6592;47.484;9.726;2022-09-20T01:19:51;2.30;;;0.90;;
13051;SDS011;6592;47.484;9.726;2022-09-20T01:22:35;3.30;;;1.10;;
13051;SDS011;6592;47.484;9.726;2022-09-20T01:25:17;6.18;;;0.93;;
13051;SDS011;6592;47.484;9.726;2022-09-20T01:27:57;6.25;;;0.88;;
13051;SDS011;6592;47.484;9.726;2022-09-20T01:30:27;5.22;;;1.17;;
13051;SDS011;6592;47.484;9.726;2022-09-20T01:33:07;2.67;;;0.90;;
13051;SDS011;6592;47.484;9.726;2022-09-20T01:35:38;5.82;;;1.10;;
13051;SDS011;6592;47.484;9.726;2022-09-20T01:38:13;2.05;;;0.98;;
13051;SDS011;6592;47.484;9.726;2022-09-20T01:40:56;2.47;;;0.85;;
13051;SDS011;6592;47.484;9.726;2022-09-20T01:43:34;2.97;;;0.85;;
13051;SDS011;6592;47.484;9.726;2022-09-20T01:46:10;2.08;;;0.80;;
13051;SDS011;6592;47.484;9.726;2022-09-20T01:48:46;5.30;;;0.88;;
13051;SDS011;6592;47.484;9.726;2022-09-20T01:51:23;4.13;;;0.97;;
13051;SDS011;6592;47.484;9.726;2022-09-20T01:57:28;4.30;;;1.10;;
13051;SDS011;6592;47.484;9.726;2022-09-20T02:00:18;2.53;;;0.98;;
13051;SDS011;6592;47.484;9.726;2022-09-20T02:09:10;4.60;;;1.10;;
13051;SDS011;6592;47.484;9.726;2022-09-20T02:11:50;2.45;;;0.80;;
13051;SDS011;6592;47.484;9.726;2022-09-20T02:14:28;3.78;;;1.00;;
13051;SDS011;6592;47.484;9.726;2022-09-20T02:17:09;3.45;;;1.02;;
13051;SDS011;6592;47.484;9.726;2022-09-20T02:19:42;3.42;;;0.95;;
13051;SDS011;6592;47.484;9.726;2022-09-20T02:22:30;2.85;;;1.08;;
13051;SDS011;6592;47.484;9.726;2022-09-20T02:25:11;2.50;;;1.08;;
13051;SDS011;6592;47.484;9.726;2022-09-20T02:27:50;3.42;;;1.00;;
13051;SDS011;6592;47.484;9.726;2022-09-20T02:30:36;3.05;;;0.90;;
13051;SDS011;6592;47.484;9.726;2022-09-20T02:33:24;4.25;;;0.93;;
13051;SDS011;6592;47.484;9.726;2022-09-20T02:36:22;2.05;;;0.90;;
13051;SDS011;6592;47.484;9.726;2022-09-20T02:39:02;4.03;;;1.13;;
13051;SDS011;6592;47.484;9.726;2022-09-20T02:41:45;2.83;;;1.13;;
13051;SDS011;6592;47.484;9.726;2022-09-20T02:44:27;2.13;;;0.70;;
13051;SDS011;6592;47.484;9.726;2022-09-20T02:47:24;3.58;;;0.80;;
13051;SDS011;6592;47.484;9.726;2022-09-20T02:50:12;2.42;;;1.00;;
13051;SDS011;6592;47.484;9.726;2022-09-20T02:52:50;4.25;;;1.15;;
13051;SDS011;6592;47.484;9.726;2022-09-20T02:55:30;4.50;;;1.15;;
13051;SDS011;6592;47.484;9.726;2022-09-20T02:58:08;4.03;;;1.15;;
13051;SDS011;6592;47.484;9.726;2022-09-20T03:00:52;3.13;;;1.20;;
13051;SDS011;6592;47.484;9.726;2022-09-20T03:03:28;3.13;;;1.20;;
13051;SDS011;6592;47.484;9.726;2022-09-20T03:06:06;3.83;;;1.10;;
13051;SDS011;6592;47.484;9.726;2022-09-20T03:08:42;2.33;;;0.90;;
13051;SDS011;6592;47.484;9.726;2022-09-20T03:11:20;3.70;;;0.82;;
13051;SDS011;6592;47.484;9.726;2022-09-20T03:14:02;3.15;;;0.90;;
13051;SDS011;6592;47.484;9.726;2022-09-20T03:16:43;2.05;;;0.95;;
13051;SDS011;6592;47.484;9.726;2022-09-20T03:19:28;3.55;;;0.80;;
13051;SDS011;6592;47.484;9.726;2022-09-20T03:22:12;3.15;;;1.00;;
13051;SDS011;6592;47.484;9.726;2022-09-20T03:24:53;2.90;;;1.02;;
13051;SDS011;6592;47.484;9.726;2022-09-20T03:27:35;3.22;;;0.90;;
13051;SDS011;6592;47.484;9.726;2022-09-20T03:30:17;2.03;;;0.80;;
13051;SDS011;6592;47.484;9.726;2022-09-20T03:32:55;1.80;;;0.90;;
13051;SDS011;6592;47.484;9.726;2022-09-20T03:35:38;4.18;;;1.20;;
13051;SDS011;6592;47.484;9.726;2022-09-20T03:38:27;2.03;;;0.80;;
13051;SDS011;6592;47.484;9.726;2022-09-20T03:41:16;4.47;;;1.23;;
13051;SDS011;6592;47.484;9.726;2022-09-20T03:44:16;2.03;;;0.90;;
13051;SDS011;6592;47.484;9.726;2022-09-20T03:49:52;3.55;;;0.93;;
13051;SDS011;6592;47.484;9.726;2022-09-20T03:52:56;4.00;;;0.80;;
13051;SDS011;6592;47.484;9.726;2022-09-20T03:55:47;2.90;;;0.90;;
13051;SDS011;6592;47.484;9.726;2022-09-20T03:58:35;3.53;;;0.80;;
13051;SDS011;6592;47.484;9.726;2022-09-20T04:01:29;5.75;;;0.90;;
13051;SDS011;6592;47.484;9.726;2022-09-20T04:04:07;3.63;;;1.00;;
13051;SDS011;6592;47.484;9.726;2022-09-20T04:06:54;2.08;;;0.80;;
13051;SDS011;6592;47.484;9.726;2022-09-20T04:12:38;2.78;;;0.95;;
13051;SDS011;6592;47.484;9.726;2022-09-20T04:15:28;5.25;;;1.08;;
13051;SDS011;6592;47.484;9.726;2022-09-20T04:18:03;2.80;;;1.00;;
13051;SDS011;6592;47.484;9.726;2022-09-20T04:20:39;4.38;;;1.20;;
13051;SDS011;6592;47.484;9.726;2022-09-20T04:23:16;2.15;;;0.80;;
13051;SDS011;6592;47.484;9.726;2022-09-20T04:25:57;2.75;;;0.90;;
13051;SDS011;6592;47.484;9.726;2022-09-20T04:28:32;2.57;;;0.80;;
13051;SDS011;6592;47.484;9.726;2022-09-20T04:31:08;2.72;;;0.98;;
13051;SDS011;6592;47.484;9.726;2022-09-20T04:33:47;3.55;;;0.80;;
13051;SDS011;6592;47.484;9.726;2022-09-20T04:36:22;3.20;;;0.88;;
13051;SDS011;6592;47.484;9.726;2022-09-20T04:39:06;4.85;;;1.00;;
13051;SDS011;6592;47.484;9.726;2022-09-20T04:44:51;2.22;;;0.95;;
13051;SDS011;6592;47.484;9.726;2022-09-20T04:56:48;4.30;;;1.38;;
13051;SDS011;6592;47.484;9.726;2022-09-20T04:59:37;2.10;;;0.80;;
13051;SDS011;6592;47.484;9.726;2022-09-20T05:02:38;4.53;;;0.73;;
13051;SDS011;6592;47.484;9.726;2022-09-20T05:05:31;4.28;;;0.85;;
13051;SDS011;6592;47.484;9.726;2022-09-20T05:11:36;3.97;;;1.00;;
13051;SDS011;6592;47.484;9.726;2022-09-20T05:14:36;2.15;;;1.00;;
13051;SDS011;6592;47.484;9.726;2022-09-20T05:17:15;4.57;;;0.90;;
13051;SDS011;6592;47.484;9.726;2022-09-20T05:19:57;3.92;;;0.95;;
13051;SDS011;6592;47.484;9.726;2022-09-20T05:22:58;4.03;;;0.98;;
13051;SDS011;6592;47.484;9.726;2022-09-20T05:25:56;3.33;;;0.90;;
13051;SDS011;6592;47.484;9.726;2022-09-20T05:28:39;3.63;;;1.00;;
13051;SDS011;6592;47.484;9.726;2022-09-20T05:31:19;5.82;;;1.30;;
13051;SDS011;6592;47.484;9.726;2022-09-20T05:33:56;5.60;;;0.98;;
13051;SDS011;6592;47.484;9.726;2022-09-20T05:36:38;3.50;;;1.17;;
13051;SDS011;6592;47.484;9.726;2022-09-20T05:39:19;2.95;;;1.10;;
13051;SDS011;6592;47.484;9.726;2022-09-20T05:42:04;3.42;;;1.08;;
13051;SDS011;6592;47.484;9.726;2022-09-20T05:44:47;2.47;;;1.20;;
13051;SDS011;6592;47.484;9.726;2022-09-20T05:47:23;4.32;;;1.00;;
13051;SDS011;6592;47.484;9.726;2022-09-20T05:50:06;3.22;;;1.10;;
13051;SDS011;6592;47.484;9.726;2022-09-20T05:52:54;3.55;;;0.95;;
13051;SDS011;6592;47.484;9.726;2022-09-20T05:55:39;2.97;;;1.10;;
13051;SDS011;6592;47.484;9.726;2022-09-20T05:58:30;3.30;;;1.17;;
13051;SDS011;6592;47.484;9.726;2022-09-20T06:01:17;2.92;;;1.10;;
13051;SDS011;6592;47.484;9.726;2022-09-20T06:03:51;3.85;;;1.00;;
13051;SDS011;6592;47.484;9.726;2022-09-20T06:06:27;5.53;;;1.70;;
13051;SDS011;6592;47.484;9.726;2022-09-20T06:12:07;4.72;;;1.00;;
13051;SDS011;6592;47.484;9.726;2022-09-20T06:14:56;5.00;;;1.38;;
13051;SDS011;6592;47.484;9.726;2022-09-20T06:17:31;4.72;;;0.95;;
13051;SDS011;6592;47.484;9.726;2022-09-20T06:20:12;4.40;;;1.05;;
13051;SDS011;6592;47.484;9.726;2022-09-20T06:22:47;2.47;;;0.90;;
13051;SDS011;6592;47.484;9.726;2022-09-20T06:25:19;4.07;;;0.88;;
13051;SDS011;6592;47.484;9.726;2022-09-20T06:27:54;5.88;;;1.10;;
13051;SDS011;6592;47.484;9.726;2022-09-20T06:30:27;1.77;;;0.80;;
13051;SDS011;6592;47.484;9.726;2022-09-20T06:33:00;2.25;;;0.93;;
13051;SDS011;6592;47.484;9.726;2022-09-20T06:35:41;2.78;;;0.90;;
13051;SDS011;6592;47.484;9.726;2022-09-20T06:38:18;2.72;;;0.80;;
13051;SDS011;6592;47.484;9.726;2022-09-20T06:41:18;2.75;;;0.68;;
13051;SDS011;6592;47.484;9.726;2022-09-20T06:43:56;2.08;;;0.80;;
13051;SDS011;6592;47.484;9.726;2022-09-20T06:46:25;2.85;;;1.00;;
13051;SDS011;6592;47.484;9.726;2022-09-20T06:48:54;4.50;;;0.90;;
13051;SDS011;6592;47.484;9.726;2022-09-20T06:51:23;2.15;;;0.77;;
13051;SDS011;6592;47.484;9.726;2022-09-20T06:53:54;3.58;;;0.98;;
13051;SDS011;6592;47.484;9.726;2022-09-20T06:56:25;2.33;;;0.80;;
13051;SDS011;6592;47.484;9.726;2022-09-20T06:58:55;2.40;;;0.70;;
13051;SDS011;6592;47.484;9.726;2022-09-20T07:01:23;3.45;;;0.88;;
13051;SDS011;6592;47.484;9.726;2022-09-20T07:03:56;1.52;;;0.80;;
13051;SDS011;6592;47.484;9.726;2022-09-20T07:06:24;4.05;;;1.23;;
13051;SDS011;6592;47.484;9.726;2022-09-20T07:08:54;2.85;;;0.82;;
13051;SDS011;6592;47.484;9.726;2022-09-20T07:11:22;4.07;;;0.80;;
13051;SDS011;6592;47.484;9.726;2022-09-20T07:13:52;1.98;;;0.70;;
13051;SDS011;6592;47.484;9.726;2022-09-20T07:16:23;2.05;;;0.70;;
13051;SDS011;6592;47.484;9.726;2022-09-20T07:18:52;3.38;;;0.90;;
13051;SDS011;6592;47.484;9.726;2022-09-20T07:21:22;5.07;;;0.95;;
13051;SDS011;6592;47.484;9.726;2022-09-20T07:23:50;2.88;;;0.75;;
13051;SDS011;6592;47.484;9.726;2022-09-20T07:26:19;2.00;;;0.80;;
13051;SDS011;6592;47.484;9.726;2022-09-20T07:28:49;3.50;;;0.90;;
13051;SDS011;6592;47.484;9.726;2022-09-20T07:31:19;2.70;;;0.70;;
13051;SDS011;6592;47.484;9.726;2022-09-20T07:36:17;2.53;;;0.80;;
13051;SDS011;6592;47.484;9.726;2022-09-20T07:38:45;2.38;;;0.82;;
13051;SDS011;6592;47.484;9.726;2022-09-20T07:41:15;2.95;;;0.98;;
13051;SDS011;6592;47.484;9.726;2022-09-20T07:43:45;4.30;;;1.10;;
13051;SDS011;6592;47.484;9.726;2022-09-20T07:46:13;4.25;;;1.00;;
13051;SDS011;6592;47.484;9.726;2022-09-20T07:48:43;3.50;;;1.00;;
13051;SDS011;6592;47.484;9.726;2022-09-20T07:51:11;4.70;;;1.13;;
13051;SDS011;6592;47.484;9.726;2022-09-20T07:53:40;4.82;;;0.90;;
13051;SDS011;6592;47.484;9.726;2022-09-20T07:56:09;4.55;;;1.10;;
13051;SDS011;6592;47.484;9.726;2022-09-20T07:58:38;3.63;;;1.00;;
13051;SDS011;6592;47.484;9.726;2022-09-20T08:01:08;2.83;;;1.08;;
13051;SDS011;6592;47.484;9.726;2022-09-20T08:03:38;2.65;;;1.00;;
13051;SDS011;6592;47.484;9.726;2022-09-20T08:06:10;5.65;;;1.52;;
13051;SDS011;6592;47.484;9.726;2022-09-20T08:08:40;7.28;;;1.25;;
13051;SDS011;6592;47.484;9.726;2022-09-20T08:11:09;4.63;;;1.23;;
13051;SDS011;6592;47.484;9.726;2022-09-20T08:13:40;3.90;;;1.20;;
13051;SDS011;6592;47.484;9.726;2022-09-20T08:16:29;2.88;;;1.10;;
13051;SDS011;6592;47.484;9.726;2022-09-20T08:18:58;4.63;;;1.38;;
13051;SDS011;6592;47.484;9.726;2022-09-20T08:21:30;2.53;;;1.02;;
13051;SDS011;6592;47.484;9.726;2022-09-20T08:23:59;2.25;;;0.85;;
13051;SDS011;6592;47.484;9.726;2022-09-20T08:26:29;4.13;;;1.10;;
13051;SDS011;6592;47.484;9.726;2022-09-20T08:28:58;5.70;;;1.40;;
13051;SDS011;6592;47.484;9.726;2022-09-20T08:31:27;4.15;;;1.00;;
13051;SDS011;6592;47.484;9.726;2022-09-20T08:33:59;4.95;;;0.95;;
13051;SDS011;6592;47.484;9.726;2022-09-20T08:36:30;1.88;;;1.00;;
13051;SDS011;6592;47.484;9.726;2022-09-20T08:39:02;3.83;;;0.98;;
13051;SDS011;6592;47.484;9.726;2022-09-20T08:41:51;4.20;;;1.10;;
13051;SDS011;6592;47.484;9.726;2022-09-20T08:44:24;3.97;;;1.00;;
13051;SDS011;6592;47.484;9.726;2022-09-20T08:47:02;7.68;;;1.20;;
13051;SDS011;6592;47.484;9.726;2022-09-20T08:49:35;2.90;;;1.25;;
13051;SDS011;6592;47.484;9.726;2022-09-20T08:52:15;5.88;;;1.55;;
13051;SDS011;6592;47.484;9.726;2022-09-20T08:54:45;3.25;;;1.00;;
13051;SDS011;6592;47.484;9.726;2022-09-20T08:57:14;2.33;;;0.85;;
13051;SDS011;6592;47.484;9.726;2022-09-20T08:59:46;3.38;;;0.90;;
13051;SDS011;6592;47.484;9.726;2022-09-20T09:02:16;3.05;;;1.05;;
13051;SDS011;6592;47.484;9.726;2022-09-20T09:04:47;2.35;;;1.10;;
13051;SDS011;6592;47.484;9.726;2022-09-20T09:07:20;4.18;;;1.15;;
13051;SDS011;6592;47.484;9.726;2022-09-20T09:09:50;3.10;;;1.23;;
13051;SDS011;6592;47.484;9.726;2022-09-20T09:12:21;3.55;;;1.13;;
13051;SDS011;6592;47.484;9.726;2022-09-20T09:14:50;2.90;;;1.23;;
13051;SDS011;6592;47.484;9.726;2022-09-20T09:17:25;4.10;;;0.98;;
13051;SDS011;6592;47.484;9.726;2022-09-20T09:19:54;2.97;;;1.02;;
13051;SDS011;6592;47.484;9.726;2022-09-20T09:22:27;2.15;;;1.10;;
13051;SDS011;6592;47.484;9.726;2022-09-20T09:25:19;3.67;;;1.20;;
13051;SDS011;6592;47.484;9.726;2022-09-20T09:27:50;3.63;;;1.15;;
13051;SDS011;6592;47.484;9.726;2022-09-20T09:30:21;3.80;;;1.10;;
13051;SDS011;6592;47.484;9.726;2022-09-20T09:35:24;3.30;;;1.10;;
13051;SDS011;6592;47.484;9.726;2022-09-20T09:37:57;2.58;;;1.20;;
13051;SDS011;6592;47.484;9.726;2022-09-20T09:40:27;2.33;;;0.90;;
13051;SDS011;6592;47.484;9.726;2022-09-20T09:42:58;3.20;;;1.35;;
13051;SDS011;6592;47.484;9.726;2022-09-20T09:45:29;4.30;;;1.20;;
13051;SDS011;6592;47.484;9.726;2022-09-20T09:48:00;4.70;;;1.35;;
13051;SDS011;6592;47.484;9.726;2022-09-20T09:50:32;4.15;;;1.58;;
13051;SDS011;6592;47.484;9.726;2022-09-20T09:53:05;3.45;;;1.63;;
13051;SDS011;6592;47.484;9.726;2022-09-20T09:55:45;4.80;;;1.90;;
13051;SDS011;6592;47.484;9.726;2022-09-20T09:58:30;3.70;;;1.80;;
13051;SDS011;6592;47.484;9.726;2022-09-20T10:01:12;5.30;;;2.00;;
13051;SDS011;6592;47.484;9.726;2022-09-20T10:04:00;6.57;;;1.98;;
13051;SDS011;6592;47.484;9.726;2022-09-20T10:06:37;5.60;;;1.95;;
13051;SDS011;6592;47.484;9.726;2022-09-20T10:09:22;4.70;;;1.77;;
13051;SDS011;6592;47.484;9.726;2022-09-20T10:12:00;3.92;;;1.55;;
13051;SDS011;6592;47.484;9.726;2022-09-20T10:14:50;4.30;;;1.77;;
13051;SDS011;6592;47.484;9.726;2022-09-20T10:17:33;3.97;;;1.67;;
13051;SDS011;6592;47.484;9.726;2022-09-20T10:20:17;4.47;;;1.75;;
13051;SDS011;6592;47.484;9.726;2022-09-20T10:23:01;6.20;;;1.80;;
13051;SDS011;6592;47.484;9.726;2022-09-20T10:26:04;6.65;;;1.92;;
13051;SDS011;6592;47.484;9.726;2022-09-20T10:28:44;3.38;;;1.58;;
13051;SDS011;6592;47.484;9.726;2022-09-20T10:31:27;4.47;;;1.80;;
13051;SDS011;6592;47.484;9.726;2022-09-20T10:34:08;5.55;;;1.95;;
13051;SDS011;6592;47.484;9.726;2022-09-20T10:37:02;4.22;;;1.83;;
13051;SDS011;6592;47.484;9.726;2022-09-20T10:39:36;7.93;;;2.13;;
13051;SDS011;6592;47.484;9.726;2022-09-20T10:42:12;5.45;;;1.80;;
13051;SDS011;6592;47.484;9.726;2022-09-20T10:45:16;6.70;;;2.05;;
13051;SDS011;6592;47.484;9.726;2022-09-20T10:50:40;3.38;;;1.70;;
13051;SDS011;6592;47.484;9.726;2022-09-20T10:53:18;5.70;;;1.63;;
13051;SDS011;6592;47.484;9.726;2022-09-20T10:55:56;4.35;;;1.70;;
13051;SDS011;6592;47.484;9.726;2022-09-20T11:01:39;4.60;;;1.20;;
13051;SDS011;6592;47.484;9.726;2022-09-20T11:04:22;4.82;;;1.30;;
13051;SDS011;6592;47.484;9.726;2022-09-20T11:07:14;6.10;;;1.52;;
13051;SDS011;6592;47.484;9.726;2022-09-20T11:09:47;6.10;;;1.65;;
13051;SDS011;6592;47.484;9.726;2022-09-20T11:12:20;4.40;;;1.40;;
13051;SDS011;6592;47.484;9.726;2022-09-20T11:14:54;3.67;;;1.30;;
13051;SDS011;6592;47.484;9.726;2022-09-20T11:17:28;4.70;;;1.50;;
13051;SDS011;6592;47.484;9.726;2022-09-20T11:20:00;5.57;;;1.40;;
13051;SDS011;6592;47.484;9.726;2022-09-20T11:22:34;5.22;;;1.50;;
13051;SDS011;6592;47.484;9.726;2022-09-20T11:25:11;5.53;;;1.55;;
13051;SDS011;6592;47.484;9.726;2022-09-20T11:27:48;5.03;;;1.60;;
13051;SDS011;6592;47.484;9.726;2022-09-20T11:30:22;4.10;;;1.50;;
13051;SDS011;6592;47.484;9.726;2022-09-20T11:32:52;5.03;;;1.37;;
13051;SDS011;6592;47.484;9.726;2022-09-20T11:35:27;6.75;;;1.33;;
13051;SDS011;6592;47.484;9.726;2022-09-20T11:38:02;4.65;;;1.30;;
13051;SDS011;6592;47.484;9.726;2022-09-20T11:40:37;4.13;;;1.30;;
13051;SDS011;6592;47.484;9.726;2022-09-20T11:43:12;4.97;;;1.40;;
13051;SDS011;6592;47.484;9.726;2022-09-20T11:45:43;5.83;;;1.50;;
13051;SDS011;6592;47.484;9.726;2022-09-20T11:48:16;4.32;;;1.23;;
13051;SDS011;6592;47.484;9.726;2022-09-20T11:50:59;4.05;;;1.15;;
13051;SDS011;6592;47.484;9.726;2022-09-20T11:53:56;4.10;;;1.20;;
13051;SDS011;6592;47.484;9.726;2022-09-20T11:56:40;3.50;;;1.20;;
13051;SDS011;6592;47.484;9.726;2022-09-20T11:59:24;5.45;;;1.33;;
13051;SDS011;6592;47.484;9.726;2022-09-20T12:01:57;4.28;;;1.30;;
13051;SDS011;6592;47.484;9.726;2022-09-20T12:04:28;5.00;;;1.33;;
13051;SDS011;6592;47.484;9.726;2022-09-20T12:07:01;4.25;;;1.35;;
13051;SDS011;6592;47.484;9.726;2022-09-20T12:09:39;5.22;;;1.30;;
13051;SDS011;6592;47.484;9.726;2022-09-20T12:12:14;5.00;;;1.27;;
13051;SDS011;6592;47.484;9.726;2022-09-20T12:14:52;4.63;;;1.42;;
13051;SDS011;6592;47.484;9.726;2022-09-20T12:23:45;6.40;;;1.20;;
13051;SDS011;6592;47.484;9.726;2022-09-20T12:26:44;5.63;;;1.30;;
13051;SDS011;6592;47.484;9.726;2022-09-20T12:32:30;4.75;;;1.40;;
13051;SDS011;6592;47.484;9.726;2022-09-20T12:38:38;6.43;;;1.50;;
13051;SDS011;6592;47.484;9.726;2022-09-20T12:41:16;4.38;;;1.25;;
13051;SDS011;6592;47.484;9.726;2022-09-20T12:43:55;5.15;;;1.20;;
13051;SDS011;6592;47.484;9.726;2022-09-20T12:46:33;4.85;;;1.38;;
13051;SDS011;6592;47.484;9.726;2022-09-20T12:49:14;6.95;;;1.55;;
13051;SDS011;6592;47.484;9.726;2022-09-20T12:52:31;5.78;;;1.10;;
13051;SDS011;6592;47.484;9.726;2022-09-20T13:38:49;4.63;;;1.10;;
13051;SDS011;6592;47.484;9.726;2022-09-20T13:41:17;4.50;;;0.95;;
13051;SDS011;6592;47.484;9.726;2022-09-20T13:43:46;4.32;;;1.20;;
13051;SDS011;6592;47.484;9.726;2022-09-20T13:46:16;4.53;;;1.10;;
13051;SDS011;6592;47.484;9.726;2022-09-20T13:48:51;5.43;;;1.45;;
13051;SDS011;6592;47.484;9.726;2022-09-20T13:51:25;4.30;;;1.60;;
13051;SDS011;6592;47.484;9.726;2022-09-20T13:54:15;4.00;;;1.20;;
13051;SDS011;6592;47.484;9.726;2022-09-20T13:56:45;6.37;;;1.40;;
13051;SDS011;6592;47.484;9.726;2022-09-20T13:59:14;8.65;;;1.50;;
13051;SDS011;6592;47.484;9.726;2022-09-20T14:01:47;5.80;;;1.30;;
13051;SDS011;6592;47.484;9.726;2022-09-20T14:04:17;3.97;;;1.10;;
13051;SDS011;6592;47.484;9.726;2022-09-20T14:06:48;4.60;;;1.20;;
13051;SDS011;6592;47.484;9.726;2022-09-20T14:09:22;3.75;;;1.17;;
13051;SDS011;6592;47.484;9.726;2022-09-20T14:11:55;3.53;;;1.00;;
13051;SDS011;6592;47.484;9.726;2022-09-20T14:14:25;3.87;;;1.07;;
13051;SDS011;6592;47.484;9.726;2022-09-20T14:16:55;3.38;;;1.00;;
13051;SDS011;6592;47.484;9.726;2022-09-20T14:19:26;4.53;;;1.00;;
13051;SDS011;6592;47.484;9.726;2022-09-20T14:21:58;3.13;;;1.00;;
13051;SDS011;6592;47.484;9.726;2022-09-20T14:24:32;3.65;;;0.82;;
13051;SDS011;6592;47.484;9.726;2022-09-20T14:27:12;3.90;;;1.00;;
13051;SDS011;6592;47.484;9.726;2022-09-20T14:29:43;6.05;;;1.10;;
13051;SDS011;6592;47.484;9.726;2022-09-20T14:32:17;3.72;;;1.00;;
13051;SDS011;6592;47.484;9.726;2022-09-20T14:34:57;4.93;;;1.08;;
13051;SDS011;6592;47.484;9.726;2022-09-20T14:37:31;2.92;;;0.90;;
13051;SDS011;6592;47.484;9.726;2022-09-20T14:40:03;2.67;;;1.00;;
13051;SDS011;6592;47.484;9.726;2022-09-20T14:42:44;5.07;;;1.20;;
13051;SDS011;6592;47.484;9.726;2022-09-20T14:45:19;3.25;;;0.93;;
13051;SDS011;6592;47.484;9.726;2022-09-20T14:47:52;2.78;;;1.02;;
13051;SDS011;6592;47.484;9.726;2022-09-20T14:50:23;3.13;;;1.10;;
13051;SDS011;6592;47.484;9.726;2022-09-20T14:55:30;3.25;;;1.10;;
13051;SDS011;6592;47.484;9.726;2022-09-20T14:58:04;3.22;;;0.98;;
13051;SDS011;6592;47.484;9.726;2022-09-20T15:00:45;2.78;;;1.10;;
13051;SDS011;6592;47.484;9.726;2022-09-20T15:03:18;3.35;;;1.10;;
13051;SDS011;6592;47.484;9.726;2022-09-20T15:05:52;3.28;;;1.00;;
13051;SDS011;6592;47.484;9.726;2022-09-20T15:08:20;2.80;;;0.70;;
13051;SDS011;6592;47.484;9.726;2022-09-20T15:10:50;3.70;;;1.00;;
13051;SDS011;6592;47.484;9.726;2022-09-20T15:13:18;4.50;;;1.00;;
13051;SDS011;6592;47.484;9.726;2022-09-20T15:15:47;3.20;;;1.20;;
13051;SDS011;6592;47.484;9.726;2022-09-20T15:18:18;2.88;;;1.05;;
13051;SDS011;6592;47.484;9.726;2022-09-20T15:20:48;5.22;;;1.08;;
13051;SDS011;6592;47.484;9.726;2022-09-20T15:23:17;6.38;;;1.17;;
13051;SDS011;6592;47.484;9.726;2022-09-20T15:25:48;3.55;;;0.90;;
13051;SDS011;6592;47.484;9.726;2022-09-20T15:28:19;3.63;;;1.10;;
13051;SDS011;6592;47.484;9.726;2022-09-20T15:30:48;2.45;;;0.90;;
13051;SDS011;6592;47.484;9.726;2022-09-20T15:33:18;2.75;;;0.90;;
13051;SDS011;6592;47.484;9.726;2022-09-20T15:35:47;4.60;;;1.20;;
13051;SDS011;6592;47.484;9.726;2022-09-20T15:38:15;5.43;;;1.40;;
13051;SDS011;6592;47.484;9.726;2022-09-20T15:40:45;3.95;;;1.30;;
13051;SDS011;6592;47.484;9.726;2022-09-20T15:43:18;3.72;;;1.23;;
13051;SDS011;6592;47.484;9.726;2022-09-20T15:45:50;4.10;;;1.13;;
13051;SDS011;6592;47.484;9.726;2022-09-20T15:48:20;5.00;;;1.17;;
13051;SDS011;6592;47.484;9.726;2022-09-20T15:50:57;3.25;;;1.20;;
13051;SDS011;6592;47.484;9.726;2022-09-20T15:53:27;4.82;;;1.42;;
13051;SDS011;6592;47.484;9.726;2022-09-20T15:55:59;4.78;;;1.10;;
13051;SDS011;6592;47.484;9.726;2022-09-20T15:58:29;4.65;;;1.30;;
13051;SDS011;6592;47.484;9.726;2022-09-20T16:01:02;3.05;;;1.33;;
13051;SDS011;6592;47.484;9.726;2022-09-20T16:03:32;3.25;;;1.13;;
13051;SDS011;6592;47.484;9.726;2022-09-20T16:06:01;3.20;;;1.48;;
13051;SDS011;6592;47.484;9.726;2022-09-20T16:08:31;4.47;;;1.20;;
13051;SDS011;6592;47.484;9.726;2022-09-20T16:10:59;4.80;;;1.30;;
13051;SDS011;6592;47.484;9.726;2022-09-20T16:13:29;5.20;;;1.50;;
13051;SDS011;6592;47.484;9.726;2022-09-20T16:15:58;4.68;;;1.30;;
13051;SDS011;6592;47.484;9.726;2022-09-20T16:18:27;5.50;;;1.33;;
13051;SDS011;6592;47.484;9.726;2022-09-20T16:21:11;5.13;;;1.30;;
13051;SDS011;6592;47.484;9.726;2022-09-20T16:23:41;3.25;;;1.30;;
13051;SDS011;6592;47.484;9.726;2022-09-20T16:26:13;4.43;;;1.38;;
13051;SDS011;6592;47.484;9.726;2022-09-20T16:28:43;4.20;;;1.30;;
13051;SDS011;6592;47.484;9.726;2022-09-20T16:31:29;3.67;;;1.05;;
13051;SDS011;6592;47.484;9.726;2022-09-20T16:34:00;4.63;;;1.30;;
13051;SDS011;6592;47.484;9.726;2022-09-20T16:36:30;2.72;;;1.10;;
13051;SDS011;6592;47.484;9.726;2022-09-20T16:38:58;4.88;;;1.30;;
13051;SDS011;6592;47.484;9.726;2022-09-20T16:41:28;4.50;;;1.50;;
13051;SDS011;6592;47.484;9.726;2022-09-20T16:43:59;3.97;;;1.50;;
13051;SDS011;6592;47.484;9.726;2022-09-20T16:46:27;3.75;;;1.52;;
13051;SDS011;6592;47.484;9.726;2022-09-20T16:48:58;7.45;;;1.40;;
13051;SDS011;6592;47.484;9.726;2022-09-20T16:51:28;3.58;;;1.50;;
13051;SDS011;6592;47.484;9.726;2022-09-20T16:53:59;4.30;;;1.30;;
13051;SDS011;6592;47.484;9.726;2022-09-20T16:56:29;4.80;;;1.60;;
13051;SDS011;6592;47.484;9.726;2022-09-20T16:59:00;4.22;;;1.55;;
13051;SDS011;6592;47.484;9.726;2022-09-20T17:01:30;4.82;;;1.40;;
13051;SDS011;6592;47.484;9.726;2022-09-20T17:03:59;4.45;;;1.50;;
13051;SDS011;6592;47.484;9.726;2022-09-20T17:08:59;5.07;;;1.35;;
13051;SDS011;6592;47.484;9.726;2022-09-20T17:11:29;5.90;;;1.50;;
13051;SDS011;6592;47.484;9.726;2022-09-20T17:13:58;5.47;;;1.48;;
13051;SDS011;6592;47.484;9.726;2022-09-20T17:16:28;4.22;;;1.60;;
13051;SDS011;6592;47.484;9.726;2022-09-20T17:18:59;4.85;;;1.85;;
13051;SDS011;6592;47.484;9.726;2022-09-20T17:21:28;6.10;;;2.30;;
13051;SDS011;6592;47.484;9.726;2022-09-20T17:23:57;4.82;;;2.08;;
13051;SDS011;6592;47.484;9.726;2022-09-20T17:26:26;6.20;;;2.40;;
13051;SDS011;6592;47.484;9.726;2022-09-20T17:28:56;4.55;;;2.20;;
13051;SDS011;6592;47.484;9.726;2022-09-20T17:31:26;7.25;;;2.47;;
13051;SDS011;6592;47.484;9.726;2022-09-20T17:33:59;6.30;;;2.10;;
13051;SDS011;6592;47.484;9.726;2022-09-20T17:36:30;5.28;;;2.17;;
13051;SDS011;6592;47.484;9.726;2022-09-20T17:39:00;6.88;;;2.03;;
13051;SDS011;6592;47.484;9.726;2022-09-20T17:41:30;6.55;;;2.20;;
13051;SDS011;6592;47.484;9.726;2022-09-20T17:43:59;6.32;;;2.30;;